Haukur — OZ2119 — position and weather

sailwx.info

Track history (hours):
 
Tides and Currents Weather Stations Pressure Air Temp Water Temp Dewpoint Dewpoint Depression Visibility Wind Speed Wind Dir Waves Ship Positions

Haukur

Last reported at 2014-Nov-15 05:31 UTC. Time now 2014-Nov-21 17:51 UTC.
Position N 62°28' W 008°12'.

Length 75 m; draft 5.7 m.

Type: Cargo ship. MMSI: 231812000.

Date/timePositionNaut miles runAvg speedWind from/ knotsBaromVisibWave heightAir tempDewpointWater temp
2014-Nov-15 05:31N 62°28' W 008°12'27 8.8
2014-Nov-15 02:25N 62°23' W 007°14'9 8.9
2014-Nov-15 01:26N 62°21' W 006°56'8 9.6
2014-Nov-15 00:33N 62°14' W 006°45'1 1.4
2014-Nov-14 23:32N 62°14' W 006°48'0 0.0
2014-Nov-14 22:29N 62°14' W 006°48'0 0.0
2014-Nov-14 21:32N 62°14' W 006°48'0 0.0
2014-Nov-14 20:32N 62°14' W 006°48'0 0.0
2014-Nov-14 19:32N 62°14' W 006°48'0 0.0
2014-Nov-14 18:32N 62°14' W 006°48'0 0.0
2014-Nov-14 17:32N 62°14' W 006°48'1 0.6
2014-Nov-14 16:33N 62°14' W 006°47'6 5.9
2014-Nov-14 15:32N 62°11' W 006°36'6 5.9
2014-Nov-14 14:34N 62°05' W 006°37'13 6.3
2014-Nov-14 12:28N 61°56' W 006°57'8 8.3
2014-Nov-14 11:33N 61°48' W 007°01'9 9.2
2014-Nov-14 10:33N 61°39' W 007°03'12 9.7
2014-Nov-14 09:19N 61°27' W 006°59'8 9.6
2014-Nov-14 08:26N 61°19' W 006°55'12 8.8
2014-Nov-14 07:04N 61°08' W 006°47'148 8.4
2014-Nov-13 13:27N 58°41' W 006°05'168 8.7
2014-Nov-12 18:07N 55°56' W 006°55'610.9
2014-Nov-12 17:33N 55°51' W 006°48'1111.5
2014-Nov-12 16:33N 55°41' W 006°36'1211.7
2014-Nov-12 15:33N 55°33' W 006°22'1010.3
2014-Nov-12 14:33N 55°26' W 006°09'9 9.2
2014-Nov-12 13:33N 55°20' W 005°57'8 7.8
2014-Nov-12 12:33N 55°13' W 005°49'8 8.1
2014-Nov-12 11:33N 55°06' W 005°43'9 8.6
2014-Nov-12 10:30N 54°58' W 005°37'8 8.9
2014-Nov-12 09:33N 54°50' W 005°31'9 9.2
2014-Nov-12 08:33N 54°42' W 005°24'9 9.3
2014-Nov-12 07:33N 54°33' W 005°18'10 9.6
2014-Nov-12 06:33N 54°23' W 005°19'10 9.8
2014-Nov-12 05:33N 54°14' W 005°22'11110.1
2014-Nov-11 18:31N 52°24' W 005°50'8 7.3
2014-Nov-11 17:29N 52°16' W 005°52'258 8.3
2014-Nov-10 10:33N 47°60' W 005°09'7 7.2
2014-Nov-10 09:33N 47°55' W 005°01'8 7.6
2014-Nov-10 08:33N 47°50' W 004°53'142 8.7
2014-Nov-09 16:14N 46°16' W 002°17'16 8.8
2014-Nov-09 14:26N 46°04' W 002°01'  
2014-Nov-07 03:21N 45°59' W 001°54'20 7.2
2014-Nov-07 00:33N 46°14' W 002°14'7 7.2
2014-Nov-06 23:33N 46°19' W 002°21'7 6.5
2014-Nov-06 22:26N 46°24' W 002°29'127 8.5
2014-Nov-06 07:33N 47°47' W 004°50'10 9.7
2014-Nov-06 06:33N 47°54' W 005°01'1410.8
2014-Nov-06 05:16N 48°03' W 005°16'234 9.9
2014-Nov-05 05:32N 50°58' W 009°16'  
Track history (hours):
 
Tides and Currents Weather Stations Pressure Air Temp Water Temp Dewpoint Dewpoint Depression Visibility Wind Speed Wind Dir Waves Ship Positions

Haukur

Last reported at 2014-Nov-15 05:31 UTC. Time now 2014-Nov-21 17:51 UTC.
Position N 62°28' W 008°12'.

Length 75 m; draft 5.7 m.

Type: Cargo ship. MMSI: 231812000.

Date/timePositionNaut miles runAvg speedWind from/ knotsBaromVisibWave heightAir tempDewpointWater temp
2014-Nov-15 05:31N 62°28' W 008°12'27 8.8
2014-Nov-15 02:25N 62°23' W 007°14'9 8.9
2014-Nov-15 01:26N 62°21' W 006°56'8 9.6
2014-Nov-15 00:33N 62°14' W 006°45'1 1.4
2014-Nov-14 23:32N 62°14' W 006°48'0 0.0
2014-Nov-14 22:29N 62°14' W 006°48'0 0.0
2014-Nov-14 21:32N 62°14' W 006°48'0 0.0
2014-Nov-14 20:32N 62°14' W 006°48'0 0.0
2014-Nov-14 19:32N 62°14' W 006°48'0 0.0
2014-Nov-14 18:32N 62°14' W 006°48'0 0.0
2014-Nov-14 17:32N 62°14' W 006°48'1 0.6
2014-Nov-14 16:33N 62°14' W 006°47'6 5.9
2014-Nov-14 15:32N 62°11' W 006°36'6 5.9
2014-Nov-14 14:34N 62°05' W 006°37'13 6.3
2014-Nov-14 12:28N 61°56' W 006°57'8 8.3
2014-Nov-14 11:33N 61°48' W 007°01'9 9.2
2014-Nov-14 10:33N 61°39' W 007°03'12 9.7
2014-Nov-14 09:19N 61°27' W 006°59'8 9.6
2014-Nov-14 08:26N 61°19' W 006°55'12 8.8
2014-Nov-14 07:04N 61°08' W 006°47'148 8.4
2014-Nov-13 13:27N 58°41' W 006°05'168 8.7
2014-Nov-12 18:07N 55°56' W 006°55'610.9
2014-Nov-12 17:33N 55°51' W 006°48'1111.5
2014-Nov-12 16:33N 55°41' W 006°36'1211.7
2014-Nov-12 15:33N 55°33' W 006°22'1010.3
2014-Nov-12 14:33N 55°26' W 006°09'9 9.2
2014-Nov-12 13:33N 55°20' W 005°57'8 7.8
2014-Nov-12 12:33N 55°13' W 005°49'8 8.1
2014-Nov-12 11:33N 55°06' W 005°43'9 8.6
2014-Nov-12 10:30N 54°58' W 005°37'8 8.9
2014-Nov-12 09:33N 54°50' W 005°31'9 9.2
2014-Nov-12 08:33N 54°42' W 005°24'9 9.3
2014-Nov-12 07:33N 54°33' W 005°18'10 9.6
2014-Nov-12 06:33N 54°23' W 005°19'10 9.8
2014-Nov-12 05:33N 54°14' W 005°22'11110.1
2014-Nov-11 18:31N 52°24' W 005°50'8 7.3
2014-Nov-11 17:29N 52°16' W 005°52'258 8.3
2014-Nov-10 10:33N 47°60' W 005°09'7 7.2
2014-Nov-10 09:33N 47°55' W 005°01'8 7.6
2014-Nov-10 08:33N 47°50' W 004°53'142 8.7
2014-Nov-09 16:14N 46°16' W 002°17'16 8.8
2014-Nov-09 14:26N 46°04' W 002°01'  
2014-Nov-07 03:21N 45°59' W 001°54'20 7.2
2014-Nov-07 00:33N 46°14' W 002°14'7 7.2
2014-Nov-06 23:33N 46°19' W 002°21'7 6.5
2014-Nov-06 22:26N 46°24' W 002°29'127 8.5
2014-Nov-06 07:33N 47°47' W 004°50'10 9.7
2014-Nov-06 06:33N 47°54' W 005°01'1410.8
2014-Nov-06 05:16N 48°03' W 005°16'234 9.9
2014-Nov-05 05:32N 50°58' W 009°16'  

Dump ship's entire track history